Time;durP1;ratioP1;P1;durP2;ratioP2;P2;SDS_P1;SDS_P2;PMS_P1;PMS_P2;Temp;Humidity;BMP_temperature;BMP_pressure;BME280_temperature;BME280_humidity;BME280_pressure;Samples;Min_cycle;Max_cycle;Signal;HPM_P1;HPM_P2
2021/06/19 00:00:13;;;;;;;6.97;5.63;;;;;;;25.00;59.59;99350.06;2068553;28;20032;-62
2021/06/19 00:01:13;;;;;;;8.00;6.13;;;;;;;25.00;59.81;99354.72;2060381;28;20167;-62
2021/06/19 00:02:13;;;;;;;7.97;4.90;;;;;;;25.00;59.49;99343.69;2066594;28;20060;-62
2021/06/19 00:03:14;;;;;;;7.87;5.97;;;;;;;25.01;59.81;99350.91;2067407;28;20105;-62
2021/06/19 00:04:15;;;;;;;6.67;5.17;;;;;;;24.99;59.67;99348.38;2080591;28;20671;-61
2021/06/19 00:05:16;;;;;;;7.17;5.77;;;;;;;25.00;59.85;99343.69;2076229;28;20589;-62
2021/06/19 00:06:16;;;;;;;7.95;5.68;;;;;;;24.99;59.45;99342.00;2070682;28;20084;-62
2021/06/19 00:07:17;;;;;;;5.37;4.87;;;;;;;25.00;59.51;99351.97;2070551;28;20061;-62
2021/06/19 00:08:17;;;;;;;8.07;5.63;;;;;;;25.00;59.49;99349.22;2073991;28;20110;-62
2021/06/19 00:09:18;;;;;;;6.97;5.90;;;;;;;25.00;59.51;99357.47;2075960;28;20035;-62
2021/06/19 00:10:19;;;;;;;5.93;5.27;;;;;;;25.00;59.55;99354.72;2073915;28;20025;-62
2021/06/19 00:11:19;;;;;;;7.60;5.32;;;;;;;25.01;59.64;99350.91;2067813;28;20077;-62
2021/06/19 00:12:20;;;;;;;8.50;6.33;;;;;;;25.01;59.54;99353.66;2070945;28;20727;-62
2021/06/19 00:13:20;;;;;;;8.23;5.37;;;;;;;25.02;59.61;99358.13;2062430;28;20046;-62
2021/06/19 00:14:21;;;;;;;7.37;5.27;;;;;;;25.00;59.41;99357.47;2061555;28;20025;-62
2021/06/19 00:15:23;;;;;;;6.82;5.35;;;;;;;25.00;59.22;99354.72;2059809;28;20183;-62
2021/06/19 00:16:24;;;;;;;7.05;5.68;;;;;;;24.99;59.51;99345.63;2062884;28;20121;-62
2021/06/19 00:17:24;;;;;;;7.70;5.40;;;;;;;24.99;59.76;99351.13;2075136;28;20509;-62
2021/06/19 00:18:25;;;;;;;8.30;5.40;;;;;;;25.00;59.58;99343.69;2074578;28;20029;-62
2021/06/19 00:19:25;;;;;;;7.83;4.77;;;;;;;25.00;59.49;99343.69;2070207;28;20112;-62
2021/06/19 00:20:26;;;;;;;8.03;5.43;;;;;;;24.99;59.41;99342.00;2067764;28;20180;-62
2021/06/19 00:21:27;;;;;;;6.97;5.60;;;;;;;25.00;59.58;99333.50;2071759;28;20032;-62
2021/06/19 00:22:27;;;;;;;8.27;5.63;;;;;;;24.99;59.54;99336.50;2070802;28;20074;-62
2021/06/19 00:23:28;;;;;;;8.70;5.67;;;;;;;24.99;59.73;99328.22;2076040;28;20434;-62
2021/06/19 00:24:38;;;;;;;7.57;4.85;;;;;;;24.98;59.52;99321.00;2068920;28;20576;-62
2021/06/19 00:25:38;;;;;;;7.38;5.75;;;;;;;24.98;59.44;99324.59;2072794;28;20055;-62
2021/06/19 00:26:39;;;;;;;5.67;4.90;;;;;;;24.99;59.66;99330.97;2072133;28;20029;-62
2021/06/19 00:27:39;;;;;;;6.23;5.20;;;;;;;24.99;59.37;99328.22;2068688;28;20451;-62
2021/06/19 00:28:40;;;;;;;8.87;5.50;;;;;;;24.98;59.36;99321.00;2074981;28;20096;-62
2021/06/19 00:29:40;;;;;;;8.00;4.83;;;;;;;24.98;59.57;99318.22;2067087;28;20014;-62
2021/06/19 00:30:41;;;;;;;6.93;5.43;;;;;;;24.98;59.59;99318.22;2073231;28;20055;-62
2021/06/19 00:31:43;;;;;;;7.93;5.30;;;;;;;24.99;59.64;99318.03;2074417;28;20502;-62
2021/06/19 00:32:45;;;;;;;8.93;5.78;;;;;;;24.99;59.52;99319.97;2069175;28;20506;-62
2021/06/19 00:33:45;;;;;;;6.97;5.30;;;;;;;24.98;59.60;99312.72;2069965;28;20507;-62
2021/06/19 00:34:46;;;;;;;7.63;5.67;;;;;;;24.98;59.54;99318.22;2072634;28;20451;-62
2021/06/19 00:35:46;;;;;;;6.40;5.03;;;;;;;24.99;59.61;99317.19;2082070;28;20042;-62
2021/06/19 00:36:47;;;;;;;7.60;5.30;;;;;;;24.99;59.46;99317.19;2077047;28;20021;-62
2021/06/19 00:37:48;;;;;;;5.73;4.83;;;;;;;25.00;59.37;99318.88;2074661;28;20027;-62
2021/06/19 00:38:49;;;;;;;8.50;5.30;;;;;;;24.97;59.42;99314.63;2073085;28;20021;-62
2021/06/19 00:39:49;;;;;;;7.47;5.43;;;;;;;24.99;59.42;99317.19;2066608;28;20029;-62
2021/06/19 00:40:50;;;;;;;5.97;5.00;;;;;;;24.98;59.61;99323.75;2075790;28;20044;-62
2021/06/19 00:41:50;;;;;;;6.67;5.27;;;;;;;24.99;59.54;99319.97;2076895;28;20601;-62
2021/06/19 00:42:57;;;;;;;6.97;4.80;;;;;;;24.98;59.42;99318.22;2077837;28;20033;-62
2021/06/19 00:43:58;;;;;;;6.82;5.00;;;;;;;24.97;59.45;99308.28;2069224;28;20021;-62
2021/06/19 00:44:59;;;;;;;5.83;5.27;;;;;;;24.97;59.44;99311.03;2074940;28;20020;-62
2021/06/19 00:46:00;;;;;;;7.57;5.13;;;;;;;24.97;59.51;99308.28;2075329;28;20096;-62
2021/06/19 00:47:00;;;;;;;7.85;5.15;;;;;;;24.98;59.60;99301.69;2070295;28;20025;-62
2021/06/19 00:48:09;;;;;;;6.63;5.30;;;;;;;24.97;59.45;99306.38;2071492;28;20492;-62
2021/06/19 00:49:10;;;;;;;5.82;4.55;;;;;;;24.97;59.60;99309.13;2071430;28;20868;-62
2021/06/19 00:50:11;;;;;;;7.27;4.87;;;;;;;24.97;59.41;99300.84;2069307;28;20126;-62
2021/06/19 00:51:11;;;;;;;7.45;5.53;;;;;;;24.97;59.57;99300.00;2078048;28;20518;-62
2021/06/19 00:52:11;;;;;;;5.83;5.23;;;;;;;24.97;59.54;99300.00;2063630;28;20040;-61
2021/06/19 00:53:12;;;;;;;6.97;5.50;;;;;;;24.97;59.71;99294.50;2065425;28;20025;-62
2021/06/19 00:54:13;;;;;;;6.87;4.90;;;;;;;24.97;59.51;99295.34;2067298;28;20037;-62
2021/06/19 00:55:14;;;;;;;6.75;5.25;;;;;;;24.98;59.53;99285.16;2068567;28;20120;-62
2021/06/19 00:56:14;;;;;;;7.22;5.35;;;;;;;24.97;59.45;99291.75;2068976;28;20053;-62
2021/06/19 00:57:15;;;;;;;8.30;5.57;;;;;;;24.98;59.26;99290.66;2070904;28;20456;-62
2021/06/19 00:58:16;;;;;;;7.23;4.77;;;;;;;24.97;59.32;99288.97;2070678;28;20597;-62
2021/06/19 00:59:17;;;;;;;6.27;4.67;;;;;;;24.97;59.47;99286.22;2069687;28;20487;-62
2021/06/19 01:00:18;;;;;;;6.65;5.05;;;;;;;24.99;59.33;99286.88;2069225;28;20036;-59
2021/06/19 01:01:19;;;;;;;5.60;5.07;;;;;;;24.97;59.49;99289.81;2078141;28;20530;-61
2021/06/19 01:02:19;;;;;;;8.07;6.13;;;;;;;24.98;59.60;99287.91;2075071;28;20474;-61
2021/06/19 01:03:20;;;;;;;7.73;5.77;;;;;;;24.97;59.59;99280.72;2076494;28;20020;-61
2021/06/19 01:04:20;;;;;;;8.40;5.60;;;;;;;24.98;59.46;99276.88;2075244;28;20439;-62
2021/06/19 01:05:21;;;;;;;7.53;5.73;;;;;;;24.97;59.38;99277.94;2071466;28;20033;-62
2021/06/19 01:06:22;;;;;;;6.95;5.32;;;;;;;24.96;59.51;99277.13;2071992;28;20029;-61
2021/06/19 01:07:23;;;;;;;5.33;4.83;;;;;;;24.97;59.50;99273.28;2069253;28;20030;-62
2021/06/19 01:08:23;;;;;;;6.07;5.00;;;;;;;24.96;59.61;99270.72;2073776;28;20074;-61
2021/06/19 01:09:24;;;;;;;6.27;4.73;;;;;;;24.97;59.54;99272.44;2070467;28;20083;-61
2021/06/19 01:10:25;;;;;;;6.43;5.00;;;;;;;24.97;59.29;99272.44;2065330;28;20440;-61
2021/06/19 01:11:26;;;;;;;6.07;5.25;;;;;;;24.97;59.43;99261.41;2066449;28;20022;-61
2021/06/19 01:12:27;;;;;;;6.18;4.97;;;;;;;24.96;59.63;99266.09;2064167;28;20048;-61
2021/06/19 01:13:29;;;;;;;6.00;5.30;;;;;;;24.97;59.58;99261.41;2060107;28;20108;-61
2021/06/19 01:14:29;;;;;;;;;;;;;;;24.92;59.51;99259.28;2066678;28;20038;-62
2021/06/19 01:15:30;;;;;;;8.15;5.70;;;;;;;24.93;59.56;99265.63;2072268;28;19952;-61
2021/06/19 01:16:31;;;;;;;5.90;5.37;;;;;;;24.93;59.62;99263.72;2068086;28;20493;-61
2021/06/19 01:17:32;;;;;;;7.30;5.55;;;;;;;24.94;59.32;99261.81;2070964;28;20025;-61
2021/06/19 01:18:32;;;;;;;7.17;5.23;;;;;;;24.95;59.39;99263.53;2076924;28;20033;-62
2021/06/19 01:19:32;;;;;;;7.43;5.27;;;;;;;24.94;59.56;99262.69;2070984;28;20053;-61
2021/06/19 01:20:36;;;;;;;7.53;5.20;;;;;;;24.94;59.51;99267.31;2065738;28;20041;-61
2021/06/19 01:21:37;;;;;;;5.68;4.43;;;;;;;24.95;59.32;99264.38;2069552;28;20025;-62
2021/06/19 01:22:53;;;;;;;6.07;5.20;;;;;;;24.93;59.51;99262.88;2073488;28;20032;-61
2021/06/19 01:23:54;;;;;;;6.20;5.50;;;;;;;24.94;59.57;99259.03;2074093;28;20682;-61
2021/06/19 01:24:56;;;;;;;6.13;4.87;;;;;;;24.94;59.38;99261.81;2067867;28;20017;-61
2021/06/19 01:25:56;;;;;;;6.50;5.25;;;;;;;24.94;59.27;99253.53;2068961;28;20051;-61
2021/06/19 01:26:57;;;;;;;7.40;5.27;;;;;;;24.94;59.50;99259.91;2068497;28;20014;-61
2021/06/19 01:27:59;;;;;;;7.67;5.47;;;;;;;24.96;59.24;99265.22;2058408;28;20611;-61
2021/06/19 01:28:59;;;;;;;6.15;5.32;;;;;;;24.94;59.29;99264.56;2067480;28;20155;-61
2021/06/19 01:30:02;;;;;;;6.50;5.03;;;;;;;24.95;59.55;99260.75;2069624;28;20049;-61
2021/06/19 01:31:03;;;;;;;6.20;4.97;;;;;;;24.94;59.36;99268.19;2072196;28;20040;-61
2021/06/19 01:32:03;;;;;;;10.97;4.83;;;;;;;24.95;59.32;99269.03;2076993;28;20025;-61
2021/06/19 01:33:05;;;;;;;5.70;5.10;;;;;;;24.95;59.32;99271.78;2073985;28;20039;-61
2021/06/19 01:34:06;;;;;;;8.20;5.88;;;;;;;24.95;59.31;99275.38;2076879;28;20028;-61
2021/06/19 01:35:08;;;;;;;9.70;5.90;;;;;;;24.97;59.29;99272.44;2076242;28;20161;-61
2021/06/19 01:36:11;;;;;;;7.50;5.22;;;;;;;24.95;59.29;99277.31;2074901;28;20037;-61
2021/06/19 01:37:15;;;;;;;7.50;5.25;;;;;;;24.94;59.35;99278.34;2078566;28;20715;-62
2021/06/19 01:38:16;;;;;;;6.45;4.85;;;;;;;24.94;59.55;99273.72;2064784;28;20022;-61
2021/06/19 01:39:16;;;;;;;5.73;5.13;;;;;;;24.95;59.44;99274.53;2068104;28;20025;-61
2021/06/19 01:40:19;;;;;;;5.90;4.73;;;;;;;24.95;59.38;99280.91;2072580;28;20023;-61
2021/06/19 01:41:28;;;;;;;7.82;5.32;;;;;;;24.93;59.50;99282.16;2082571;28;20020;-61
2021/06/19 01:42:28;;;;;;;6.88;5.32;;;;;;;24.95;59.48;99285.56;2081809;28;20024;-61
2021/06/19 01:43:29;;;;;;;6.33;5.73;;;;;;;24.95;59.54;99285.56;2076978;28;20025;-61
2021/06/19 01:44:33;;;;;;;5.77;5.00;;;;;;;24.93;59.49;99282.16;2076278;28;20044;-61
2021/06/19 01:45:35;;;;;;;7.43;5.05;;;;;;;24.94;59.39;99284.72;2067757;28;20037;-61
2021/06/19 01:46:41;;;;;;;6.85;5.32;;;;;;;24.93;59.31;99282.16;2066672;28;20025;-61
2021/06/19 01:47:42;;;;;;;5.70;5.10;;;;;;;24.94;59.61;99283.84;2075498;28;20021;-62
2021/06/19 01:48:42;;;;;;;5.63;4.35;;;;;;;24.93;59.63;99277.50;2077092;28;20032;-61
2021/06/19 01:49:43;;;;;;;5.73;5.13;;;;;;;24.94;59.41;99283.84;2076195;28;20009;-61
2021/06/19 01:50:44;;;;;;;6.83;4.90;;;;;;;24.93;59.30;99277.50;2075909;28;20476;-61
2021/06/19 01:51:44;;;;;;;9.07;5.57;;;;;;;24.94;59.56;99281.09;2072300;28;20476;-61
2021/06/19 01:52:45;;;;;;;7.37;5.40;;;;;;;24.94;59.48;99281.09;2074715;28;20032;-62
2021/06/19 01:53:47;;;;;;;7.30;5.30;;;;;;;24.94;59.32;99278.34;2084096;28;20020;-61
2021/06/19 01:54:47;;;;;;;7.68;5.22;;;;;;;24.93;59.50;99273.91;2064004;28;20481;-61
2021/06/19 01:55:47;;;;;;;6.90;5.17;;;;;;;24.93;59.29;99272.00;2068598;28;20993;-61
2021/06/19 01:56:48;;;;;;;6.97;5.00;;;;;;;24.93;59.23;99280.25;2072719;28;20021;-61
2021/06/19 01:57:54;;;;;;;5.50;5.00;;;;;;;24.93;59.50;99279.41;2064269;28;20930;-61
2021/06/19 01:58:54;;;;;;;6.00;4.35;;;;;;;24.93;59.35;99276.66;2066722;28;20025;-61
2021/06/19 02:00:00;;;;;;;9.63;5.00;;;;;;;24.92;59.50;99283.25;2066755;28;20028;-61
2021/06/19 02:01:02;;;;;;;7.28;5.75;;;;;;;24.93;59.50;99282.16;2068907;28;20112;-61
2021/06/19 02:02:03;;;;;;;7.80;5.60;;;;;;;24.93;59.22;99271.16;2074145;28;20762;-61
2021/06/19 02:03:08;;;;;;;6.38;4.70;;;;;;;24.92;59.35;99274.97;2070983;28;20013;-61
2021/06/19 02:04:08;;;;;;;7.03;5.35;;;;;;;24.94;59.65;99272.84;2075329;28;20021;-61
2021/06/19 02:05:11;;;;;;;7.20;5.53;;;;;;;24.92;59.47;99274.97;2066705;28;20021;-61
2021/06/19 02:06:12;;;;;;;7.40;5.07;;;;;;;24.93;59.55;99273.91;2074248;28;20502;-62
2021/06/19 02:07:13;;;;;;;5.70;5.10;;;;;;;24.93;59.30;99271.16;2067304;28;20443;-61
2021/06/19 02:08:13;;;;;;;6.90;4.97;;;;;;;24.93;59.40;99271.16;2073662;28;20036;-61
2021/06/19 02:09:14;;;;;;;7.17;5.40;;;;;;;24.92;59.35;99275.81;2075645;28;20025;-61
2021/06/19 02:10:17;;;;;;;7.05;4.90;;;;;;;24.93;59.51;99271.16;2068298;28;20068;-62
2021/06/19 02:11:18;;;;;;;6.13;4.80;;;;;;;24.93;59.45;99268.38;2074481;28;20025;-61
2021/06/19 02:12:18;;;;;;;8.90;5.27;;;;;;;24.92;59.33;99269.47;2068841;28;20107;-61
2021/06/19 02:13:19;;;;;;;7.00;4.80;;;;;;;24.92;59.36;99266.69;2073414;28;20059;-61
2021/06/19 02:14:19;;;;;;;5.87;5.03;;;;;;;24.93;59.48;99265.63;2074421;28;20704;-61
2021/06/19 02:15:21;;;;;;;5.53;4.80;;;;;;;24.93;59.49;99269.22;2062778;28;20067;-61
2021/06/19 02:16:21;;;;;;;6.15;5.03;;;;;;;24.92;59.66;99269.47;2070787;28;20056;-62
2021/06/19 02:17:22;;;;;;;5.57;4.77;;;;;;;24.93;59.35;99271.16;2075381;28;20028;-61
2021/06/19 02:18:22;;;;;;;4.63;4.23;;;;;;;24.93;59.23;99262.88;2074619;28;20029;-61
2021/06/19 02:19:23;;;;;;;6.17;5.27;;;;;;;24.93;59.46;99262.88;2068821;28;20029;-61
2021/06/19 02:20:25;;;;;;;6.30;5.23;;;;;;;24.93;59.40;99265.63;2074597;28;20116;-61
2021/06/19 02:21:26;;;;;;;;;;;;;;;24.88;59.62;99259.91;2069166;28;20313;-61
2021/06/19 02:22:26;;;;;;;5.88;4.90;;;;;;;24.89;59.74;99264.34;2074352;28;19905;-61
2021/06/19 02:23:27;;;;;;;5.10;4.60;;;;;;;24.89;59.51;99264.34;2071568;28;20017;-62
2021/06/19 02:24:27;;;;;;;6.83;4.73;;;;;;;24.90;59.49;99260.53;2071040;28;20763;-61
2021/06/19 02:25:30;;;;;;;5.03;4.50;;;;;;;24.90;59.51;99257.78;2060054;28;20575;-61
2021/06/19 02:26:30;;;;;;;7.75;4.75;;;;;;;24.90;59.71;99272.41;2063363;28;20033;-61
2021/06/19 02:27:30;;;;;;;6.83;5.37;;;;;;;24.90;59.46;99277.94;2073004;28;20031;-61
2021/06/19 02:28:31;;;;;;;5.47;4.83;;;;;;;24.90;59.48;99279.84;2073553;28;20021;-61
2021/06/19 02:29:32;;;;;;;6.13;5.20;;;;;;;24.90;59.65;99272.41;2074128;28;20017;-61
2021/06/19 02:30:39;;;;;;;4.90;4.30;;;;;;;24.90;59.66;99277.94;2071913;28;20468;-61
2021/06/19 02:31:39;;;;;;;5.85;5.00;;;;;;;24.92;59.49;99277.72;2067700;28;20048;-61
2021/06/19 02:32:40;;;;;;;7.13;5.07;;;;;;;24.91;59.40;99276.00;2072300;28;20040;-61
2021/06/19 02:33:40;;;;;;;6.13;4.57;;;;;;;24.91;59.55;99278.78;2072262;28;20071;-62
2021/06/19 02:34:41;;;;;;;6.03;5.07;;;;;;;24.91;59.49;99268.59;2072983;28;20043;-61
2021/06/19 02:35:44;;;;;;;5.90;4.87;;;;;;;24.90;59.51;99271.56;2071691;28;20574;-61
2021/06/19 02:36:45;;;;;;;6.10;5.28;;;;;;;24.90;59.53;99271.56;2073733;28;20032;-62
2021/06/19 02:37:46;;;;;;;9.97;4.93;;;;;;;24.90;59.44;99274.31;2076669;28;20060;-61
2021/06/19 02:38:48;;;;;;;6.33;5.27;;;;;;;24.90;59.56;99277.94;2070568;28;20029;-61
2021/06/19 02:39:49;;;;;;;5.70;5.18;;;;;;;24.90;59.60;99277.09;2073428;28;20784;-61
2021/06/19 02:40:51;;;;;;;5.33;4.83;;;;;;;24.91;59.50;99278.78;2064175;28;20026;-61
2021/06/19 02:41:51;;;;;;;7.32;5.20;;;;;;;24.92;59.51;99281.31;2071186;28;20025;-61
2021/06/19 02:42:53;;;;;;;6.17;5.00;;;;;;;24.91;59.28;99279.63;2075714;28;20850;-61
2021/06/19 02:43:53;;;;;;;5.40;4.55;;;;;;;24.90;59.63;99275.16;2069899;28;20036;-61
2021/06/19 02:44:53;;;;;;;8.37;4.50;;;;;;;24.91;59.50;99278.78;2067764;28;20556;-61
2021/06/19 02:45:58;;;;;;;6.50;5.27;;;;;;;24.90;59.49;99283.44;2071038;28;20028;-62
2021/06/19 02:46:59;;;;;;;7.22;5.28;;;;;;;24.91;59.46;99287.03;2074861;28;20028;-61
2021/06/19 02:47:59;;;;;;;6.27;5.20;;;;;;;24.90;59.40;99288.09;2063294;28;20029;-62
2021/06/19 02:49:00;;;;;;;5.57;4.27;;;;;;;24.91;59.41;99289.78;2067180;28;20096;-61
2021/06/19 02:50:00;;;;;;;6.30;5.20;;;;;;;24.90;59.33;99282.59;2069910;28;20724;-61
2021/06/19 02:51:01;;;;;;;5.73;4.50;;;;;;;24.90;59.70;99277.94;2074697;28;20557;-62
2021/06/19 02:52:01;;;;;;;5.20;4.33;;;;;;;24.91;59.49;99278.78;2072671;28;20032;-61
2021/06/19 02:53:03;;;;;;;5.77;4.90;;;;;;;24.91;59.11;99284.28;2074785;28;20025;-61
2021/06/19 02:54:05;;;;;;;5.95;5.35;;;;;;;24.89;59.50;99281.75;2076657;28;20024;-61
2021/06/19 02:55:05;;;;;;;6.05;4.40;;;;;;;24.90;59.60;99288.09;2074053;28;20017;-61
2021/06/19 02:56:06;;;;;;;5.40;4.90;;;;;;;24.89;59.44;99298.28;2070592;28;20861;-61
2021/06/19 02:57:10;;;;;;;6.33;4.87;;;;;;;24.90;59.66;99299.13;2066486;28;20428;-61
2021/06/19 02:58:12;;;;;;;5.63;4.32;;;;;;;24.90;59.37;99293.63;2074103;28;20110;-61
2021/06/19 02:59:13;;;;;;;6.18;5.20;;;;;;;24.90;59.23;99304.66;2071173;28;20041;-61
2021/06/19 03:00:15;;;;;;;6.07;4.77;;;;;;;24.90;59.33;99304.66;2073097;28;20060;-61
2021/06/19 03:01:16;;;;;;;6.50;5.00;;;;;;;24.90;59.19;99293.63;2069957;28;20066;-62
2021/06/19 03:02:16;;;;;;;5.10;4.20;;;;;;;24.90;59.43;99304.66;2069372;28;20107;-61
2021/06/19 03:03:17;;;;;;;6.57;5.10;;;;;;;24.91;59.42;99309.94;2073697;28;20110;-61
2021/06/19 03:04:17;;;;;;;6.07;5.30;;;;;;;24.89;59.44;99309.31;2062704;28;20107;-61
2021/06/19 03:05:20;;;;;;;7.60;4.93;;;;;;;24.90;59.36;99310.16;2058839;28;20038;-61
2021/06/19 03:06:21;;;;;;;5.10;4.57;;;;;;;24.89;59.43;99311.19;2067709;28;20025;-61
2021/06/19 03:07:21;;;;;;;5.93;5.00;;;;;;;24.89;59.45;99303.81;2067743;28;20035;-61
2021/06/19 03:08:22;;;;;;;7.57;5.23;;;;;;;24.88;59.43;99307.59;2074958;28;20036;-61
2021/06/19 03:09:23;;;;;;;5.80;5.10;;;;;;;24.89;59.27;99308.44;2073968;28;20048;-61
2021/06/19 03:10:29;;;;;;;5.23;4.50;;;;;;;24.88;59.01;99312.28;2071384;28;20060;-61
2021/06/19 03:11:30;;;;;;;5.78;5.25;;;;;;;24.89;59.42;99309.31;2070818;28;20091;-61
2021/06/19 03:12:30;;;;;;;6.30;4.50;;;;;;;24.89;59.37;99311.19;2063843;28;20057;-61
2021/06/19 03:13:31;;;;;;;5.87;5.00;;;;;;;24.89;59.48;99311.19;2067776;28;20064;-62
2021/06/19 03:14:31;;;;;;;5.97;5.00;;;;;;;24.88;59.33;99304.84;2071669;28;20487;-61
2021/06/19 03:15:32;;;;;;;7.50;4.40;;;;;;;24.87;59.59;99305.06;2071038;28;20033;-61
2021/06/19 03:16:35;;;;;;;6.07;4.70;;;;;;;24.87;59.17;99305.06;2069204;28;20025;-61
2021/06/19 03:17:36;;;;;;;7.07;4.85;;;;;;;24.86;59.29;99292.31;2069440;28;20029;-61
2021/06/19 03:18:36;;;;;;;7.43;4.80;;;;;;;24.87;59.20;99294.88;2072551;28;20086;-61
2021/06/19 03:19:37;;;;;;;4.87;4.30;;;;;;;24.88;59.42;99284.72;2071777;28;20116;-62
2021/06/19 03:20:38;;;;;;;5.45;4.47;;;;;;;24.87;59.26;99288.53;2061843;28;20801;-61
2021/06/19 03:21:41;;;;;;;6.80;5.40;;;;;;;24.88;59.31;99292.97;2064829;28;20068;-61
2021/06/19 03:22:46;;;;;;;8.65;5.82;;;;;;;24.87;59.38;99288.53;2068630;28;20033;-61
2021/06/19 03:23:47;;;;;;;5.63;4.78;;;;;;;24.87;59.24;99291.28;2074222;28;20506;-61
2021/06/19 03:24:47;;;;;;;6.37;4.63;;;;;;;24.87;59.43;99294.88;2068205;28;20450;-61
2021/06/19 03:25:48;;;;;;;5.57;5.07;;;;;;;24.88;59.27;99295.72;2071274;28;20064;-61
2021/06/19 03:26:48;;;;;;;5.07;4.40;;;;;;;24.86;59.41;99297.84;2073169;28;20111;-62
2021/06/19 03:27:49;;;;;;;5.67;4.87;;;;;;;24.86;59.49;99292.31;2069838;28;20034;-61
2021/06/19 03:28:50;;;;;;;6.37;5.70;;;;;;;24.88;59.21;99295.72;2068165;28;20041;-62
2021/06/19 03:29:50;;;;;;;6.43;5.10;;;;;;;24.86;59.47;99297.84;2065880;28;20025;-61
2021/06/19 03:30:51;;;;;;;6.23;4.70;;;;;;;24.88;59.61;99306.75;2072230;28;20933;-61
2021/06/19 03:31:51;;;;;;;5.27;4.77;;;;;;;24.86;59.30;99304.19;2066414;28;20524;-61
2021/06/19 03:32:52;;;;;;;6.93;4.83;;;;;;;24.88;59.44;99313.13;2062626;28;20052;-61
2021/06/19 03:33:53;;;;;;;6.93;5.40;;;;;;;24.87;59.57;99316.09;2059142;28;20017;-61
2021/06/19 03:34:53;;;;;;;5.80;4.67;;;;;;;24.88;59.48;99309.50;2073520;28;20127;-61
2021/06/19 03:35:54;;;;;;;5.77;4.80;;;;;;;24.86;59.45;99314.38;2067237;28;20041;-62
2021/06/19 03:37:01;;;;;;;6.30;5.30;;;;;;;24.86;59.59;99319.88;2075698;28;20554;-61
2021/06/19 03:38:02;;;;;;;4.95;4.18;;;;;;;24.86;59.47;99311.63;2070767;28;20029;-61
2021/06/19 03:39:03;;;;;;;6.95;4.97;;;;;;;24.87;59.42;99316.09;2069290;28;20875;-61
2021/06/19 03:40:09;;;;;;;5.93;5.03;;;;;;;24.86;59.41;99314.38;2072080;28;20400;-61
2021/06/19 03:41:10;;;;;;;5.85;4.47;;;;;;;24.86;59.52;99325.41;2065085;28;20036;-61
2021/06/19 03:42:10;;;;;;;5.63;5.13;;;;;;;24.86;59.49;99319.88;2074238;28;20033;-62
2021/06/19 03:43:11;;;;;;;6.80;5.40;;;;;;;24.87;59.46;99332.63;2073419;28;20021;-61
2021/06/19 03:44:11;;;;;;;6.13;4.93;;;;;;;24.86;59.33;99330.91;2074848;28;20108;-62
2021/06/19 03:45:13;;;;;;;4.87;4.37;;;;;;;24.88;59.57;99339.84;2071963;28;20009;-61
2021/06/19 03:46:13;;;;;;;5.40;4.90;;;;;;;24.86;59.63;99341.94;2065877;28;20112;-61
2021/06/19 03:47:14;;;;;;;5.80;5.10;;;;;;;24.87;59.47;99340.91;2074460;28;20852;-61
2021/06/19 03:48:14;;;;;;;5.90;4.77;;;;;;;24.86;59.46;99353.81;2076293;28;20029;-61
2021/06/19 03:49:15;;;;;;;8.93;5.80;;;;;;;24.86;59.45;99352.97;2068273;28;20051;-61
2021/06/19 03:50:19;;;;;;;6.30;5.10;;;;;;;24.85;59.40;99352.13;2074579;28;20588;-61
2021/06/19 03:51:19;;;;;;;5.47;4.97;;;;;;;24.85;59.68;99354.88;2074393;28;20279;-61
2021/06/19 03:52:20;;;;;;;6.00;4.53;;;;;;;24.87;59.55;99357.44;2074507;28;20021;-62
2021/06/19 03:53:21;;;;;;;8.25;5.63;;;;;;;24.86;59.44;99361.25;2076462;28;20120;-62
2021/06/19 03:54:21;;;;;;;6.03;4.97;;;;;;;24.86;59.69;99359.31;2070572;28;20051;-62
2021/06/19 03:55:23;;;;;;;5.30;4.80;;;;;;;24.85;59.64;99368.66;2071910;28;20041;-62
2021/06/19 03:56:23;;;;;;;;;;;;;;;24.81;59.48;99357.19;2069541;28;20029;-61
2021/06/19 03:57:26;;;;;;;5.22;4.70;;;;;;;24.82;59.45;99366.31;2073073;28;19913;-61
2021/06/19 03:58:26;;;;;;;5.72;4.55;;;;;;;24.83;59.56;99364.41;2070353;28;20025;-61
2021/06/19 03:59:26;;;;;;;5.13;4.63;;;;;;;24.82;59.65;99360.81;2073088;28;20044;-61
2021/06/19 04:00:29;;;;;;;5.33;4.70;;;;;;;24.83;59.71;99364.41;2074435;28;20087;-61
2021/06/19 04:01:29;;;;;;;5.70;4.80;;;;;;;24.84;59.34;99375.22;2067576;28;20021;-61
2021/06/19 04:02:30;;;;;;;6.57;4.70;;;;;;;24.84;59.59;99380.72;2073089;28;20329;-61
2021/06/19 04:03:30;;;;;;;6.17;4.70;;;;;;;24.84;59.42;99377.13;2076283;28;20063;-62
2021/06/19 04:04:31;;;;;;;5.87;5.27;;;;;;;24.84;59.48;99377.97;2073213;28;20036;-61
2021/06/19 04:05:31;;;;;;;4.87;4.37;;;;;;;24.85;59.51;99384.34;2067644;28;20285;-61
2021/06/19 04:06:32;;;;;;;6.23;5.50;;;;;;;24.84;59.49;99382.63;2062363;28;21911;-61
2021/06/19 04:07:32;;;;;;;5.60;4.33;;;;;;;24.85;59.55;99381.59;2068590;28;20033;-61
2021/06/19 04:08:33;;;;;;;5.03;4.47;;;;;;;24.85;59.50;99395.38;2069813;28;20658;-63
2021/06/19 04:09:33;;;;;;;5.23;4.17;;;;;;;24.84;59.49;99393.66;2073190;28;20021;-63
2021/06/19 04:10:33;;;;;;;6.47;4.30;;;;;;;24.83;59.61;99387.31;2078569;28;20021;-62
2021/06/19 04:11:34;;;;;;;5.93;4.67;;;;;;;24.84;59.56;99390.91;2071424;28;20431;-62
2021/06/19 04:12:35;;;;;;;5.40;4.70;;;;;;;24.84;59.59;99399.19;2074339;28;20028;-63
2021/06/19 04:13:35;;;;;;;6.20;5.60;;;;;;;24.84;59.72;99393.66;2072855;28;20037;-63
2021/06/19 04:14:36;;;;;;;6.03;5.27;;;;;;;24.83;59.50;99392.81;2069779;28;20024;-62
2021/06/19 04:15:36;;;;;;;7.00;4.53;;;;;;;24.86;59.50;99397.06;2068052;28;20044;-63
2021/06/19 04:16:37;;;;;;;6.43;4.30;;;;;;;24.83;59.59;99398.34;2067130;28;20032;-63
2021/06/19 04:17:38;;;;;;;5.53;4.80;;;;;;;24.83;59.58;99403.84;2069556;28;20021;-62
2021/06/19 04:18:39;;;;;;;5.22;4.38;;;;;;;24.83;59.67;99398.34;2073723;28;20132;-63
2021/06/19 04:19:40;;;;;;;7.72;4.82;;;;;;;24.85;59.57;99400.91;2070460;28;20585;-63
2021/06/19 04:20:41;;;;;;;5.60;5.00;;;;;;;24.83;59.72;99398.34;2072974;28;20056;-62
2021/06/19 04:21:41;;;;;;;4.33;3.93;;;;;;;24.83;59.64;99401.09;2069309;28;20125;-62
2021/06/19 04:22:43;;;;;;;5.53;4.83;;;;;;;24.82;59.30;99396.66;2066319;28;20036;-62
2021/06/19 04:23:44;;;;;;;6.55;5.13;;;;;;;24.84;59.56;99390.91;2071955;28;20540;-63
2021/06/19 04:24:44;;;;;;;7.47;5.00;;;;;;;24.83;59.47;99391.97;2070604;28;20970;-62
2021/06/19 04:25:45;;;;;;;5.67;4.57;;;;;;;24.81;59.38;99387.50;2068944;28;20025;-62
2021/06/19 04:26:45;;;;;;;5.37;4.73;;;;;;;24.82;59.71;99377.34;2068963;28;20116;-62
2021/06/19 04:27:54;;;;;;;5.13;4.63;;;;;;;24.80;59.73;99383.06;2074001;28;20472;-63
2021/06/19 04:28:54;;;;;;;5.63;5.03;;;;;;;24.80;59.59;99380.31;2072650;28;20079;-62
2021/06/19 04:29:55;;;;;;;7.13;5.00;;;;;;;24.81;59.73;99382.00;2070249;28;20092;-62
2021/06/19 04:30:59;;;;;;;6.03;4.10;;;;;;;24.80;59.52;99380.31;2074490;28;20025;-62
2021/06/19 04:32:00;;;;;;;5.90;4.95;;;;;;;24.81;59.53;99376.47;2071759;28;20029;-63
2021/06/19 04:33:01;;;;;;;5.45;4.57;;;;;;;24.80;59.48;99372.03;2075337;28;20887;-62
2021/06/19 04:34:01;;;;;;;5.80;4.67;;;;;;;24.81;59.67;99373.72;2076957;28;21043;-62
2021/06/19 04:35:02;;;;;;;4.47;4.03;;;;;;;24.83;59.64;99378.19;2074978;28;20032;-63
2021/06/19 04:36:05;;;;;;;5.72;4.93;;;;;;;24.83;59.45;99378.19;2077054;28;20029;-63
2021/06/19 04:37:07;;;;;;;6.85;5.20;;;;;;;24.80;59.44;99377.53;2065155;28;20102;-62
2021/06/19 04:38:08;;;;;;;6.10;4.75;;;;;;;24.81;59.75;99378.38;2075829;28;20114;-62
2021/06/19 04:39:08;;;;;;;5.77;5.17;;;;;;;24.80;59.41;99377.53;2070986;28;20084;-63
2021/06/19 04:41:33;;;;;;;8.23;4.82;;;;;;;24.79;59.52;99381.38;2073558;28;20981;-62
2021/06/19 04:42:37;;;;;;;5.20;4.68;;;;;;;24.80;59.44;99387.72;2073996;28;20399;-63
2021/06/19 04:45:53;;;;;;;5.90;4.80;;;;;;;24.79;59.61;99386.88;2076251;28;20042;-62
2021/06/19 04:46:54;;;;;;;5.40;4.67;;;;;;;24.80;59.57;99394.09;2075510;28;20116;-63
2021/06/19 04:47:56;;;;;;;5.40;4.90;;;;;;;24.80;59.73;99396.84;2062101;28;20041;-62
2021/06/19 04:48:56;;;;;;;5.05;4.55;;;;;;;24.80;59.61;99402.34;2069528;28;20652;-62
2021/06/19 04:49:58;;;;;;;4.50;3.93;;;;;;;24.80;59.58;99402.34;2062268;28;20907;-62
2021/06/19 04:50:59;;;;;;;6.75;4.75;;;;;;;24.80;59.49;99410.63;2057559;28;20033;-62
2021/06/19 04:51:59;;;;;;;4.60;4.20;;;;;;;24.80;59.68;99410.63;2054388;28;20034;-63